sensor_id;sensor_type;location;lat;lon;timestamp;P1;durP1;ratioP1;P2;durP2;ratioP2
31043;SDS011;17710;52.520;13.352;2022-08-19T00:01:13;11.48;;;8.60;;
31043;SDS011;17710;52.520;13.352;2022-08-19T00:03:39;9.30;;;8.32;;
31043;SDS011;17710;52.520;13.352;2022-08-19T00:06:06;9.50;;;8.52;;
31043;SDS011;17710;52.520;13.352;2022-08-19T00:08:33;11.13;;;9.43;;
31043;SDS011;17710;52.520;13.352;2022-08-19T00:10:59;16.15;;;9.32;;
31043;SDS011;17710;52.520;13.352;2022-08-19T00:13:26;12.90;;;9.27;;
31043;SDS011;17710;52.520;13.352;2022-08-19T00:15:53;10.55;;;8.90;;
31043;SDS011;17710;52.520;13.352;2022-08-19T00:18:20;10.25;;;9.30;;
31043;SDS011;17710;52.520;13.352;2022-08-19T00:20:46;10.35;;;8.85;;
31043;SDS011;17710;52.520;13.352;2022-08-19T00:23:13;9.88;;;8.88;;
31043;SDS011;17710;52.520;13.352;2022-08-19T00:25:41;10.60;;;9.07;;
31043;SDS011;17710;52.520;13.352;2022-08-19T00:28:07;11.77;;;9.15;;
31043;SDS011;17710;52.520;13.352;2022-08-19T00:30:34;10.05;;;9.00;;
31043;SDS011;17710;52.520;13.352;2022-08-19T00:33:00;10.25;;;8.85;;
31043;SDS011;17710;52.520;13.352;2022-08-19T00:35:26;11.05;;;9.65;;
31043;SDS011;17710;52.520;13.352;2022-08-19T00:37:53;10.35;;;9.20;;
31043;SDS011;17710;52.520;13.352;2022-08-19T00:40:20;10.73;;;9.07;;
31043;SDS011;17710;52.520;13.352;2022-08-19T00:42:48;10.60;;;9.45;;
31043;SDS011;17710;52.520;13.352;2022-08-19T00:45:17;10.15;;;9.15;;
31043;SDS011;17710;52.520;13.352;2022-08-19T00:47:50;12.07;;;8.90;;
31043;SDS011;17710;52.520;13.352;2022-08-19T00:50:17;10.85;;;8.75;;
31043;SDS011;17710;52.520;13.352;2022-08-19T00:52:46;9.95;;;8.95;;
31043;SDS011;17710;52.520;13.352;2022-08-19T00:55:16;10.80;;;9.25;;
31043;SDS011;17710;52.520;13.352;2022-08-19T00:57:48;10.65;;;9.18;;
31043;SDS011;17710;52.520;13.352;2022-08-19T01:00:18;15.82;;;8.68;;
31043;SDS011;17710;52.520;13.352;2022-08-19T01:02:45;13.60;;;10.00;;
31043;SDS011;17710;52.520;13.352;2022-08-19T01:05:13;13.07;;;9.95;;
31043;SDS011;17710;52.520;13.352;2022-08-19T01:07:43;16.35;;;10.68;;
31043;SDS011;17710;52.520;13.352;2022-08-19T01:10:17;11.13;;;9.35;;
31043;SDS011;17710;52.520;13.352;2022-08-19T01:15:15;10.52;;;9.25;;
31043;SDS011;17710;52.520;13.352;2022-08-19T01:17:46;12.68;;;9.23;;
31043;SDS011;17710;52.520;13.352;2022-08-19T01:20:15;11.27;;;8.35;;
31043;SDS011;17710;52.520;13.352;2022-08-19T01:22:46;12.82;;;9.52;;
31043;SDS011;17710;52.520;13.352;2022-08-19T01:25:14;10.60;;;9.15;;
31043;SDS011;17710;52.520;13.352;2022-08-19T01:27:42;12.60;;;9.35;;
31043;SDS011;17710;52.520;13.352;2022-08-19T01:30:12;13.50;;;8.63;;
31043;SDS011;17710;52.520;13.352;2022-08-19T01:32:41;12.52;;;8.10;;
31043;SDS011;17710;52.520;13.352;2022-08-19T01:35:08;12.95;;;9.30;;
31043;SDS011;17710;52.520;13.352;2022-08-19T01:37:43;10.73;;;9.18;;
31043;SDS011;17710;52.520;13.352;2022-08-19T01:40:13;10.23;;;9.05;;
31043;SDS011;17710;52.520;13.352;2022-08-19T01:42:40;10.98;;;9.13;;
31043;SDS011;17710;52.520;13.352;2022-08-19T01:45:06;14.65;;;9.68;;
31043;SDS011;17710;52.520;13.352;2022-08-19T01:47:34;12.07;;;9.50;;
31043;SDS011;17710;52.520;13.352;2022-08-19T01:50:01;13.40;;;9.35;;
31043;SDS011;17710;52.520;13.352;2022-08-19T01:52:28;11.65;;;10.07;;
31043;SDS011;17710;52.520;13.352;2022-08-19T01:54:56;14.73;;;10.43;;
31043;SDS011;17710;52.520;13.352;2022-08-19T01:57:23;10.75;;;9.63;;
31043;SDS011;17710;52.520;13.352;2022-08-19T01:59:49;14.10;;;10.65;;
31043;SDS011;17710;52.520;13.352;2022-08-19T02:02:16;18.15;;;11.48;;
31043;SDS011;17710;52.520;13.352;2022-08-19T02:04:43;13.07;;;9.68;;
31043;SDS011;17710;52.520;13.352;2022-08-19T02:07:12;11.48;;;9.43;;
31043;SDS011;17710;52.520;13.352;2022-08-19T02:09:39;13.13;;;9.85;;
31043;SDS011;17710;52.520;13.352;2022-08-19T02:12:07;13.00;;;10.82;;
31043;SDS011;17710;52.520;13.352;2022-08-19T02:14:34;14.40;;;10.73;;
31043;SDS011;17710;52.520;13.352;2022-08-19T02:17:01;11.55;;;9.88;;
31043;SDS011;17710;52.520;13.352;2022-08-19T02:19:27;13.82;;;10.00;;
31043;SDS011;17710;52.520;13.352;2022-08-19T02:21:54;13.57;;;10.50;;
31043;SDS011;17710;52.520;13.352;2022-08-19T02:24:20;15.40;;;10.30;;
31043;SDS011;17710;52.520;13.352;2022-08-19T02:26:46;11.45;;;10.13;;
31043;SDS011;17710;52.520;13.352;2022-08-19T02:29:14;12.18;;;10.05;;
31043;SDS011;17710;52.520;13.352;2022-08-19T02:31:41;12.27;;;9.88;;
31043;SDS011;17710;52.520;13.352;2022-08-19T02:34:07;16.23;;;10.13;;
31043;SDS011;17710;52.520;13.352;2022-08-19T02:36:33;10.85;;;8.63;;
31043;SDS011;17710;52.520;13.352;2022-08-19T02:39:00;12.52;;;9.75;;
31043;SDS011;17710;52.520;13.352;2022-08-19T02:41:26;12.55;;;9.73;;
31043;SDS011;17710;52.520;13.352;2022-08-19T02:43:56;13.43;;;10.35;;
31043;SDS011;17710;52.520;13.352;2022-08-19T02:46:26;13.85;;;10.77;;
31043;SDS011;17710;52.520;13.352;2022-08-19T02:48:55;11.75;;;9.90;;
31043;SDS011;17710;52.520;13.352;2022-08-19T02:51:25;12.43;;;10.55;;
31043;SDS011;17710;52.520;13.352;2022-08-19T02:53:53;15.20;;;11.30;;
31043;SDS011;17710;52.520;13.352;2022-08-19T02:56:20;12.00;;;10.75;;
31043;SDS011;17710;52.520;13.352;2022-08-19T02:58:47;13.13;;;10.40;;
31043;SDS011;17710;52.520;13.352;2022-08-19T03:01:19;12.57;;;10.18;;
31043;SDS011;17710;52.520;13.352;2022-08-19T03:03:48;14.25;;;11.25;;
31043;SDS011;17710;52.520;13.352;2022-08-19T03:06:16;13.10;;;10.52;;
31043;SDS011;17710;52.520;13.352;2022-08-19T03:08:45;14.63;;;10.70;;
31043;SDS011;17710;52.520;13.352;2022-08-19T03:11:14;18.30;;;14.95;;
31043;SDS011;17710;52.520;13.352;2022-08-19T03:13:41;19.58;;;16.33;;
31043;SDS011;17710;52.520;13.352;2022-08-19T03:16:08;23.45;;;19.30;;
31043;SDS011;17710;52.520;13.352;2022-08-19T03:18:35;24.42;;;17.27;;
31043;SDS011;17710;52.520;13.352;2022-08-19T03:21:03;24.73;;;18.67;;
31043;SDS011;17710;52.520;13.352;2022-08-19T03:23:30;21.17;;;16.67;;
31043;SDS011;17710;52.520;13.352;2022-08-19T03:25:57;18.63;;;15.23;;
31043;SDS011;17710;52.520;13.352;2022-08-19T03:28:23;20.38;;;17.05;;
31043;SDS011;17710;52.520;13.352;2022-08-19T03:30:56;20.48;;;17.60;;
31043;SDS011;17710;52.520;13.352;2022-08-19T03:33:24;25.17;;;20.17;;
31043;SDS011;17710;52.520;13.352;2022-08-19T03:35:59;24.50;;;18.00;;
31043;SDS011;17710;52.520;13.352;2022-08-19T03:38:32;18.35;;;15.13;;
31043;SDS011;17710;52.520;13.352;2022-08-19T03:41:02;22.42;;;16.05;;
31043;SDS011;17710;52.520;13.352;2022-08-19T03:43:31;15.05;;;12.60;;
31043;SDS011;17710;52.520;13.352;2022-08-19T03:46:01;16.55;;;12.68;;
31043;SDS011;17710;52.520;13.352;2022-08-19T03:48:29;16.02;;;12.68;;
31043;SDS011;17710;52.520;13.352;2022-08-19T03:50:56;13.15;;;10.98;;
31043;SDS011;17710;52.520;13.352;2022-08-19T03:53:25;15.32;;;12.40;;
31043;SDS011;17710;52.520;13.352;2022-08-19T03:55:53;13.40;;;12.00;;
31043;SDS011;17710;52.520;13.352;2022-08-19T03:58:19;13.25;;;11.65;;
31043;SDS011;17710;52.520;13.352;2022-08-19T04:00:46;15.00;;;11.50;;
31043;SDS011;17710;52.520;13.352;2022-08-19T04:03:12;12.38;;;11.02;;
31043;SDS011;17710;52.520;13.352;2022-08-19T04:05:38;12.65;;;11.45;;
31043;SDS011;17710;52.520;13.352;2022-08-19T04:08:05;12.48;;;11.20;;
31043;SDS011;17710;52.520;13.352;2022-08-19T04:10:34;14.00;;;12.05;;
31043;SDS011;17710;52.520;13.352;2022-08-19T04:13:01;13.60;;;11.45;;
31043;SDS011;17710;52.520;13.352;2022-08-19T04:15:29;13.70;;;11.52;;
31043;SDS011;17710;52.520;13.352;2022-08-19T04:17:58;14.40;;;12.60;;
31043;SDS011;17710;52.520;13.352;2022-08-19T04:20:24;13.10;;;11.75;;
31043;SDS011;17710;52.520;13.352;2022-08-19T04:22:51;13.05;;;11.18;;
31043;SDS011;17710;52.520;13.352;2022-08-19T04:25:17;12.63;;;11.43;;
31043;SDS011;17710;52.520;13.352;2022-08-19T04:27:45;16.15;;;11.60;;
31043;SDS011;17710;52.520;13.352;2022-08-19T04:30:12;12.93;;;11.25;;
31043;SDS011;17710;52.520;13.352;2022-08-19T04:32:39;12.55;;;11.23;;
31043;SDS011;17710;52.520;13.352;2022-08-19T04:35:06;13.63;;;11.48;;
31043;SDS011;17710;52.520;13.352;2022-08-19T04:37:33;16.58;;;11.45;;
31043;SDS011;17710;52.520;13.352;2022-08-19T04:39:59;11.15;;;10.02;;
31043;SDS011;17710;52.520;13.352;2022-08-19T04:42:44;15.02;;;10.80;;
31043;SDS011;17710;52.520;13.352;2022-08-19T04:45:12;14.43;;;10.48;;
31043;SDS011;17710;52.520;13.352;2022-08-19T04:47:40;13.43;;;10.68;;
31043;SDS011;17710;52.520;13.352;2022-08-19T04:50:08;11.90;;;10.70;;
31043;SDS011;17710;52.520;13.352;2022-08-19T04:52:37;15.13;;;11.10;;
31043;SDS011;17710;52.520;13.352;2022-08-19T04:55:08;11.77;;;10.43;;
31043;SDS011;17710;52.520;13.352;2022-08-19T04:57:34;11.98;;;10.73;;
31043;SDS011;17710;52.520;13.352;2022-08-19T05:00:07;16.80;;;11.43;;
31043;SDS011;17710;52.520;13.352;2022-08-19T05:02:35;12.13;;;10.60;;
31043;SDS011;17710;52.520;13.352;2022-08-19T05:05:01;13.02;;;11.00;;
31043;SDS011;17710;52.520;13.352;2022-08-19T05:07:28;13.02;;;11.25;;
31043;SDS011;17710;52.520;13.352;2022-08-19T05:09:55;13.05;;;11.20;;
31043;SDS011;17710;52.520;13.352;2022-08-19T05:12:22;14.00;;;10.98;;
31043;SDS011;17710;52.520;13.352;2022-08-19T05:14:48;11.50;;;10.38;;
31043;SDS011;17710;52.520;13.352;2022-08-19T05:17:18;11.27;;;10.15;;
31043;SDS011;17710;52.520;13.352;2022-08-19T05:19:44;14.07;;;10.10;;
31043;SDS011;17710;52.520;13.352;2022-08-19T05:22:28;11.02;;;9.93;;
31043;SDS011;17710;52.520;13.352;2022-08-19T05:25:01;11.07;;;10.07;;
31043;SDS011;17710;52.520;13.352;2022-08-19T05:27:30;11.82;;;10.52;;
31043;SDS011;17710;52.520;13.352;2022-08-19T05:29:57;15.55;;;11.32;;
31043;SDS011;17710;52.520;13.352;2022-08-19T05:32:24;11.30;;;10.10;;
31043;SDS011;17710;52.520;13.352;2022-08-19T05:34:51;11.50;;;10.30;;
31043;SDS011;17710;52.520;13.352;2022-08-19T05:37:18;11.93;;;10.60;;
31043;SDS011;17710;52.520;13.352;2022-08-19T05:39:45;12.70;;;9.82;;
31043;SDS011;17710;52.520;13.352;2022-08-19T05:42:11;12.45;;;10.52;;
31043;SDS011;17710;52.520;13.352;2022-08-19T05:44:39;14.85;;;10.00;;
31043;SDS011;17710;52.520;13.352;2022-08-19T05:47:08;12.02;;;10.02;;
31043;SDS011;17710;52.520;13.352;2022-08-19T05:49:38;11.38;;;10.15;;
31043;SDS011;17710;52.520;13.352;2022-08-19T05:52:05;12.57;;;10.93;;
31043;SDS011;17710;52.520;13.352;2022-08-19T05:54:34;12.38;;;10.98;;
31043;SDS011;17710;52.520;13.352;2022-08-19T05:57:05;11.90;;;10.20;;
31043;SDS011;17710;52.520;13.352;2022-08-19T05:59:34;11.68;;;9.73;;
31043;SDS011;17710;52.520;13.352;2022-08-19T06:02:02;11.02;;;9.48;;
31043;SDS011;17710;52.520;13.352;2022-08-19T06:04:29;16.75;;;10.07;;
31043;SDS011;17710;52.520;13.352;2022-08-19T06:06:57;10.73;;;9.70;;
31043;SDS011;17710;52.520;13.352;2022-08-19T06:09:24;11.93;;;10.73;;
31043;SDS011;17710;52.520;13.352;2022-08-19T06:11:51;14.45;;;10.50;;
31043;SDS011;17710;52.520;13.352;2022-08-19T06:14:20;12.88;;;9.73;;
31043;SDS011;17710;52.520;13.352;2022-08-19T06:16:48;12.07;;;9.88;;
31043;SDS011;17710;52.520;13.352;2022-08-19T06:19:18;11.18;;;10.07;;
31043;SDS011;17710;52.520;13.352;2022-08-19T06:21:50;12.52;;;10.10;;
31043;SDS011;17710;52.520;13.352;2022-08-19T06:24:20;13.13;;;10.57;;
31043;SDS011;17710;52.520;13.352;2022-08-19T06:26:49;11.50;;;10.20;;
31043;SDS011;17710;52.520;13.352;2022-08-19T06:29:18;10.90;;;9.80;;
31043;SDS011;17710;52.520;13.352;2022-08-19T06:31:47;14.27;;;10.48;;
31043;SDS011;17710;52.520;13.352;2022-08-19T06:34:14;14.65;;;10.48;;
31043;SDS011;17710;52.520;13.352;2022-08-19T06:36:42;11.77;;;10.57;;
31043;SDS011;17710;52.520;13.352;2022-08-19T06:39:11;14.05;;;10.45;;
31043;SDS011;17710;52.520;13.352;2022-08-19T06:41:42;13.45;;;10.73;;
31043;SDS011;17710;52.520;13.352;2022-08-19T06:44:10;16.27;;;11.63;;
31043;SDS011;17710;52.520;13.352;2022-08-19T06:46:36;15.48;;;10.85;;
31043;SDS011;17710;52.520;13.352;2022-08-19T06:49:03;15.65;;;11.38;;
31043;SDS011;17710;52.520;13.352;2022-08-19T06:51:30;15.52;;;11.15;;
31043;SDS011;17710;52.520;13.352;2022-08-19T06:53:59;14.55;;;11.60;;
31043;SDS011;17710;52.520;13.352;2022-08-19T06:56:27;17.10;;;12.10;;
31043;SDS011;17710;52.520;13.352;2022-08-19T06:58:59;13.20;;;11.57;;
31043;SDS011;17710;52.520;13.352;2022-08-19T07:01:26;12.45;;;11.15;;
31043;SDS011;17710;52.520;13.352;2022-08-19T07:03:55;14.55;;;11.15;;
31043;SDS011;17710;52.520;13.352;2022-08-19T07:06:22;17.33;;;12.50;;
31043;SDS011;17710;52.520;13.352;2022-08-19T07:08:48;15.38;;;11.52;;
31043;SDS011;17710;52.520;13.352;2022-08-19T07:11:17;17.05;;;12.50;;
31043;SDS011;17710;52.520;13.352;2022-08-19T07:13:45;12.82;;;11.43;;
31043;SDS011;17710;52.520;13.352;2022-08-19T07:16:15;16.52;;;12.13;;
31043;SDS011;17710;52.520;13.352;2022-08-19T07:18:44;15.05;;;12.50;;
31043;SDS011;17710;52.520;13.352;2022-08-19T07:21:11;14.00;;;12.38;;
31043;SDS011;17710;52.520;13.352;2022-08-19T07:23:40;14.32;;;12.93;;
31043;SDS011;17710;52.520;13.352;2022-08-19T07:26:07;14.45;;;12.82;;
31043;SDS011;17710;52.520;13.352;2022-08-19T07:28:35;14.40;;;12.07;;
31043;SDS011;17710;52.520;13.352;2022-08-19T07:31:04;14.43;;;12.73;;
31043;SDS011;17710;52.520;13.352;2022-08-19T07:33:32;15.45;;;12.18;;
31043;SDS011;17710;52.520;13.352;2022-08-19T07:36:02;13.85;;;12.45;;
31043;SDS011;17710;52.520;13.352;2022-08-19T07:38:39;14.68;;;13.13;;
31043;SDS011;17710;52.520;13.352;2022-08-19T07:41:08;14.05;;;12.55;;
31043;SDS011;17710;52.520;13.352;2022-08-19T07:43:36;17.23;;;13.05;;
31043;SDS011;17710;52.520;13.352;2022-08-19T07:46:03;15.73;;;12.43;;
31043;SDS011;17710;52.520;13.352;2022-08-19T07:48:30;13.95;;;12.38;;
31043;SDS011;17710;52.520;13.352;2022-08-19T07:50:59;16.50;;;14.77;;
31043;SDS011;17710;52.520;13.352;2022-08-19T07:53:27;15.57;;;13.45;;
31043;SDS011;17710;52.520;13.352;2022-08-19T07:55:55;14.98;;;13.10;;
31043;SDS011;17710;52.520;13.352;2022-08-19T07:58:25;15.73;;;14.05;;
31043;SDS011;17710;52.520;13.352;2022-08-19T08:00:52;15.40;;;13.90;;
31043;SDS011;17710;52.520;13.352;2022-08-19T08:03:19;15.75;;;13.68;;
31043;SDS011;17710;52.520;13.352;2022-08-19T08:06:09;16.20;;;14.43;;
31043;SDS011;17710;52.520;13.352;2022-08-19T08:08:54;19.65;;;15.35;;
31043;SDS011;17710;52.520;13.352;2022-08-19T08:11:43;15.90;;;14.27;;
31043;SDS011;17710;52.520;13.352;2022-08-19T08:14:14;16.15;;;14.40;;
31043;SDS011;17710;52.520;13.352;2022-08-19T08:16:41;19.27;;;13.80;;
31043;SDS011;17710;52.520;13.352;2022-08-19T08:19:09;15.77;;;13.98;;
31043;SDS011;17710;52.520;13.352;2022-08-19T08:21:37;16.85;;;14.90;;
31043;SDS011;17710;52.520;13.352;2022-08-19T08:24:03;15.50;;;13.88;;
31043;SDS011;17710;52.520;13.352;2022-08-19T08:26:30;15.95;;;14.20;;
31043;SDS011;17710;52.520;13.352;2022-08-19T08:28:56;17.20;;;14.10;;
31043;SDS011;17710;52.520;13.352;2022-08-19T08:31:23;16.95;;;15.20;;
31043;SDS011;17710;52.520;13.352;2022-08-19T08:33:50;19.90;;;13.93;;
31043;SDS011;17710;52.520;13.352;2022-08-19T08:36:16;17.35;;;14.23;;
31043;SDS011;17710;52.520;13.352;2022-08-19T08:38:45;17.48;;;15.27;;
31043;SDS011;17710;52.520;13.352;2022-08-19T08:41:14;19.77;;;14.50;;
31043;SDS011;17710;52.520;13.352;2022-08-19T08:43:48;14.85;;;13.20;;
31043;SDS011;17710;52.520;13.352;2022-08-19T08:46:17;15.68;;;13.93;;
31043;SDS011;17710;52.520;13.352;2022-08-19T08:48:49;15.23;;;13.63;;
31043;SDS011;17710;52.520;13.352;2022-08-19T08:51:20;16.27;;;14.63;;
31043;SDS011;17710;52.520;13.352;2022-08-19T08:53:52;16.08;;;14.13;;
31043;SDS011;17710;52.520;13.352;2022-08-19T08:56:20;15.65;;;13.55;;
31043;SDS011;17710;52.520;13.352;2022-08-19T08:58:49;15.32;;;13.77;;
31043;SDS011;17710;52.520;13.352;2022-08-19T09:01:22;14.75;;;13.23;;
31043;SDS011;17710;52.520;13.352;2022-08-19T09:03:49;16.25;;;14.00;;
31043;SDS011;17710;52.520;13.352;2022-08-19T09:06:18;15.25;;;13.65;;
31043;SDS011;17710;52.520;13.352;2022-08-19T09:08:55;15.55;;;13.95;;
31043;SDS011;17710;52.520;13.352;2022-08-19T09:11:31;16.15;;;14.23;;
31043;SDS011;17710;52.520;13.352;2022-08-19T09:14:08;16.88;;;13.55;;
31043;SDS011;17710;52.520;13.352;2022-08-19T09:16:41;15.43;;;13.80;;
31043;SDS011;17710;52.520;13.352;2022-08-19T09:19:08;18.08;;;13.70;;
31043;SDS011;17710;52.520;13.352;2022-08-19T09:21:35;16.58;;;13.05;;
31043;SDS011;17710;52.520;13.352;2022-08-19T09:24:05;15.20;;;13.30;;
31043;SDS011;17710;52.520;13.352;2022-08-19T09:26:32;17.45;;;14.02;;
31043;SDS011;17710;52.520;13.352;2022-08-19T09:28:59;14.32;;;12.82;;
31043;SDS011;17710;52.520;13.352;2022-08-19T09:31:27;13.25;;;11.95;;
31043;SDS011;17710;52.520;13.352;2022-08-19T09:33:55;14.38;;;12.93;;
31043;SDS011;17710;52.520;13.352;2022-08-19T09:36:23;17.10;;;13.10;;
31043;SDS011;17710;52.520;13.352;2022-08-19T09:38:51;13.30;;;11.90;;
31043;SDS011;17710;52.520;13.352;2022-08-19T09:41:20;14.50;;;11.82;;
31043;SDS011;17710;52.520;13.352;2022-08-19T09:43:49;15.40;;;12.43;;
31043;SDS011;17710;52.520;13.352;2022-08-19T09:46:17;16.60;;;12.15;;
31043;SDS011;17710;52.520;13.352;2022-08-19T09:48:46;13.55;;;11.90;;
31043;SDS011;17710;52.520;13.352;2022-08-19T09:51:14;14.35;;;12.68;;
31043;SDS011;17710;52.520;13.352;2022-08-19T09:53:47;12.98;;;11.57;;
31043;SDS011;17710;52.520;13.352;2022-08-19T09:56:16;13.75;;;12.45;;
31043;SDS011;17710;52.520;13.352;2022-08-19T09:58:44;15.68;;;14.07;;
31043;SDS011;17710;52.520;13.352;2022-08-19T10:01:15;17.85;;;12.88;;
31043;SDS011;17710;52.520;13.352;2022-08-19T10:03:44;14.07;;;12.70;;
31043;SDS011;17710;52.520;13.352;2022-08-19T10:06:14;13.70;;;12.30;;
31043;SDS011;17710;52.520;13.352;2022-08-19T10:08:40;12.38;;;10.90;;
31043;SDS011;17710;52.520;13.352;2022-08-19T10:11:07;17.52;;;12.95;;
31043;SDS011;17710;52.520;13.352;2022-08-19T10:13:35;13.55;;;12.13;;
31043;SDS011;17710;52.520;13.352;2022-08-19T10:16:04;13.90;;;12.07;;
31043;SDS011;17710;52.520;13.352;2022-08-19T10:18:32;14.55;;;11.93;;
31043;SDS011;17710;52.520;13.352;2022-08-19T10:21:03;13.65;;;12.25;;
31043;SDS011;17710;52.520;13.352;2022-08-19T10:23:33;13.15;;;11.75;;
31043;SDS011;17710;52.520;13.352;2022-08-19T10:26:01;13.75;;;12.32;;
31043;SDS011;17710;52.520;13.352;2022-08-19T10:28:30;13.48;;;11.85;;
31043;SDS011;17710;52.520;13.352;2022-08-19T10:30:57;16.77;;;12.63;;
31043;SDS011;17710;52.520;13.352;2022-08-19T10:33:25;14.85;;;11.93;;
31043;SDS011;17710;52.520;13.352;2022-08-19T10:35:58;13.45;;;11.45;;
31043;SDS011;17710;52.520;13.352;2022-08-19T10:38:25;12.95;;;11.52;;
31043;SDS011;17710;52.520;13.352;2022-08-19T10:40:56;12.35;;;11.25;;
31043;SDS011;17710;52.520;13.352;2022-08-19T10:43:23;14.27;;;11.98;;
31043;SDS011;17710;52.520;13.352;2022-08-19T10:45:53;13.05;;;11.65;;
31043;SDS011;17710;52.520;13.352;2022-08-19T10:48:21;13.43;;;11.23;;
31043;SDS011;17710;52.520;13.352;2022-08-19T10:50:49;13.48;;;12.18;;
31043;SDS011;17710;52.520;13.352;2022-08-19T10:53:33;14.38;;;12.35;;
31043;SDS011;17710;52.520;13.352;2022-08-19T10:56:00;17.75;;;13.82;;
31043;SDS011;17710;52.520;13.352;2022-08-19T10:58:44;14.82;;;12.45;;
31043;SDS011;17710;52.520;13.352;2022-08-19T11:01:10;14.60;;;12.13;;
31043;SDS011;17710;52.520;13.352;2022-08-19T11:03:37;18.77;;;13.30;;
31043;SDS011;17710;52.520;13.352;2022-08-19T11:06:06;13.15;;;11.85;;
31043;SDS011;17710;52.520;13.352;2022-08-19T11:08:34;15.48;;;12.38;;
31043;SDS011;17710;52.520;13.352;2022-08-19T11:11:03;14.27;;;11.50;;
31043;SDS011;17710;52.520;13.352;2022-08-19T11:13:32;16.88;;;13.30;;
31043;SDS011;17710;52.520;13.352;2022-08-19T11:16:03;14.93;;;11.90;;
31043;SDS011;17710;52.520;13.352;2022-08-19T11:18:32;13.25;;;11.85;;
31043;SDS011;17710;52.520;13.352;2022-08-19T11:21:09;13.38;;;11.82;;
31043;SDS011;17710;52.520;13.352;2022-08-19T11:23:42;12.68;;;11.20;;
31043;SDS011;17710;52.520;13.352;2022-08-19T11:26:18;18.33;;;11.18;;
31043;SDS011;17710;52.520;13.352;2022-08-19T11:28:45;15.93;;;11.40;;
31043;SDS011;17710;52.520;13.352;2022-08-19T11:31:13;12.45;;;10.60;;
31043;SDS011;17710;52.520;13.352;2022-08-19T11:33:41;14.32;;;10.45;;
31043;SDS011;17710;52.520;13.352;2022-08-19T11:36:10;13.35;;;10.00;;
31043;SDS011;17710;52.520;13.352;2022-08-19T11:38:36;13.35;;;10.10;;
31043;SDS011;17710;52.520;13.352;2022-08-19T11:41:04;12.68;;;9.10;;
31043;SDS011;17710;52.520;13.352;2022-08-19T11:43:32;10.70;;;9.15;;
31043;SDS011;17710;52.520;13.352;2022-08-19T11:45:59;10.60;;;9.60;;
31043;SDS011;17710;52.520;13.352;2022-08-19T11:48:26;10.38;;;9.20;;
31043;SDS011;17710;52.520;13.352;2022-08-19T11:50:53;12.18;;;9.90;;
31043;SDS011;17710;52.520;13.352;2022-08-19T11:53:24;14.60;;;10.27;;
31043;SDS011;17710;52.520;13.352;2022-08-19T11:55:52;13.27;;;9.20;;
31043;SDS011;17710;52.520;13.352;2022-08-19T11:58:20;10.00;;;9.00;;
31043;SDS011;17710;52.520;13.352;2022-08-19T12:00:47;10.38;;;8.32;;
31043;SDS011;17710;52.520;13.352;2022-08-19T12:03:14;9.90;;;8.98;;
31043;SDS011;17710;52.520;13.352;2022-08-19T12:05:40;9.27;;;8.40;;
31043;SDS011;17710;52.520;13.352;2022-08-19T12:08:07;9.55;;;8.65;;
31043;SDS011;17710;52.520;13.352;2022-08-19T12:10:35;9.50;;;8.52;;
31043;SDS011;17710;52.520;13.352;2022-08-19T12:13:02;11.05;;;8.85;;
31043;SDS011;17710;52.520;13.352;2022-08-19T12:15:29;10.50;;;8.95;;
31043;SDS011;17710;52.520;13.352;2022-08-19T12:17:56;11.32;;;8.63;;
31043;SDS011;17710;52.520;13.352;2022-08-19T12:20:23;11.52;;;8.20;;
31043;SDS011;17710;52.520;13.352;2022-08-19T12:22:51;9.65;;;8.80;;
31043;SDS011;17710;52.520;13.352;2022-08-19T12:25:17;9.82;;;8.82;;
31043;SDS011;17710;52.520;13.352;2022-08-19T12:27:47;9.82;;;8.23;;
31043;SDS011;17710;52.520;13.352;2022-08-19T12:30:14;8.80;;;7.57;;
31043;SDS011;17710;52.520;13.352;2022-08-19T12:32:41;9.52;;;8.27;;
31043;SDS011;17710;52.520;13.352;2022-08-19T12:35:08;8.55;;;7.75;;
31043;SDS011;17710;52.520;13.352;2022-08-19T12:37:37;8.50;;;7.60;;
31043;SDS011;17710;52.520;13.352;2022-08-19T12:40:04;7.95;;;7.15;;
31043;SDS011;17710;52.520;13.352;2022-08-19T12:42:31;12.20;;;8.00;;
31043;SDS011;17710;52.520;13.352;2022-08-19T12:44:59;8.80;;;7.07;;
31043;SDS011;17710;52.520;13.352;2022-08-19T12:47:26;9.60;;;7.70;;
31043;SDS011;17710;52.520;13.352;2022-08-19T12:49:53;8.60;;;7.72;;
31043;SDS011;17710;52.520;13.352;2022-08-19T12:52:21;7.97;;;7.25;;
31043;SDS011;17710;52.520;13.352;2022-08-19T12:54:48;8.65;;;7.85;;
31043;SDS011;17710;52.520;13.352;2022-08-19T12:57:15;8.80;;;7.63;;
31043;SDS011;17710;52.520;13.352;2022-08-19T12:59:41;12.57;;;8.95;;
31043;SDS011;17710;52.520;13.352;2022-08-19T13:02:10;13.65;;;9.05;;
31043;SDS011;17710;52.520;13.352;2022-08-19T13:04:36;8.82;;;8.02;;
31043;SDS011;17710;52.520;13.352;2022-08-19T13:07:06;9.48;;;7.85;;
31043;SDS011;17710;52.520;13.352;2022-08-19T13:09:33;10.32;;;7.82;;
31043;SDS011;17710;52.520;13.352;2022-08-19T13:12:00;10.32;;;8.38;;
31043;SDS011;17710;52.520;13.352;2022-08-19T13:14:28;10.40;;;8.90;;
31043;SDS011;17710;52.520;13.352;2022-08-19T13:16:55;10.75;;;8.23;;
31043;SDS011;17710;52.520;13.352;2022-08-19T13:19:23;10.35;;;9.25;;
31043;SDS011;17710;52.520;13.352;2022-08-19T13:21:50;12.45;;;8.48;;
31043;SDS011;17710;52.520;13.352;2022-08-19T13:24:17;11.63;;;8.25;;
31043;SDS011;17710;52.520;13.352;2022-08-19T13:26:43;9.75;;;8.70;;
31043;SDS011;17710;52.520;13.352;2022-08-19T13:29:10;10.30;;;9.23;;
31043;SDS011;17710;52.520;13.352;2022-08-19T13:31:54;10.23;;;8.98;;
31043;SDS011;17710;52.520;13.352;2022-08-19T13:34:39;9.68;;;8.68;;
31043;SDS011;17710;52.520;13.352;2022-08-19T13:37:06;9.48;;;8.45;;
31043;SDS011;17710;52.520;13.352;2022-08-19T13:39:33;12.18;;;8.77;;
31043;SDS011;17710;52.520;13.352;2022-08-19T13:42:01;10.77;;;9.13;;
31043;SDS011;17710;52.520;13.352;2022-08-19T13:44:29;11.00;;;8.95;;
31043;SDS011;17710;52.520;13.352;2022-08-19T13:47:00;10.90;;;8.48;;
31043;SDS011;17710;52.520;13.352;2022-08-19T13:49:30;9.63;;;8.73;;
31043;SDS011;17710;52.520;13.352;2022-08-19T13:51:58;9.45;;;8.50;;
31043;SDS011;17710;52.520;13.352;2022-08-19T13:54:25;9.98;;;8.95;;
31043;SDS011;17710;52.520;13.352;2022-08-19T13:56:52;11.30;;;8.77;;
31043;SDS011;17710;52.520;13.352;2022-08-19T13:59:18;10.10;;;9.05;;
31043;SDS011;17710;52.520;13.352;2022-08-19T14:01:45;12.07;;;8.63;;
31043;SDS011;17710;52.520;13.352;2022-08-19T14:04:11;10.00;;;8.52;;
31043;SDS011;17710;52.520;13.352;2022-08-19T14:06:37;11.07;;;9.75;;
31043;SDS011;17710;52.520;13.352;2022-08-19T14:09:05;10.10;;;9.07;;
31043;SDS011;17710;52.520;13.352;2022-08-19T14:11:32;12.93;;;9.25;;
31043;SDS011;17710;52.520;13.352;2022-08-19T14:13:59;11.63;;;8.57;;
31043;SDS011;17710;52.520;13.352;2022-08-19T14:16:25;9.95;;;8.95;;
31043;SDS011;17710;52.520;13.352;2022-08-19T14:18:52;10.77;;;9.40;;
31043;SDS011;17710;52.520;13.352;2022-08-19T14:21:19;10.68;;;9.23;;
31043;SDS011;17710;52.520;13.352;2022-08-19T14:23:48;12.10;;;9.02;;